Terminal Aerodrome Forecast
Issued by NWS

Home | Current Version | Previous Version | Text Only | Print | Product List | Glossary On
Versions: 1 2 3 4 5 6 7 8 9 10 11 12 13
285
FTUS45 KGGW 250520
TAFSDY
TAF
KSDY 250520Z 2506/2606 14016KT P6SM SCT180 WS020/17040KT
     FM250900 17012KT P6SM BKN140 WS020/19040KT
     FM251600 24007KT P6SM BKN110
     FM252100 30007KT P6SM VCSH OVC090
     FM260000 28004KT P6SM OVC110=

USA.gov is the U.S. government's official web portal to all federal, state and local government web resources and services.